Time;durP1;ratioP1;P1;durP2;ratioP2;P2;SDS_P1;SDS_P2;PMS_P1;PMS_P2;Temp;Humidity;BMP_temperature;BMP_pressure;BME280_temperature;BME280_humidity;BME280_pressure;Samples;Min_cycle;Max_cycle;Signal;HPM_P1;HPM_P2
2023/08/30 00:01:57;;;;;;;18.25;12.98;;;;;;;;;;5105805;28;20035;-80
2023/08/30 00:04:22;;;;;;;21.02;14.25;;;;;;;;;;5093026;28;20028;-80
2023/08/30 00:06:48;;;;;;;20.40;14.10;;;;;;;;;;5103258;28;20417;-80
2023/08/30 00:09:13;;;;;;;21.65;14.73;;;;;;;;;;5089792;28;20169;-80
2023/08/30 00:11:39;;;;;;;21.75;14.35;;;;;;;;;;5089785;28;20028;-80
2023/08/30 00:14:08;;;;;;;23.70;15.40;;;;;;;;;;5089419;28;20032;-80
2023/08/30 00:16:33;;;;;;;21.10;13.70;;;;;;;;;;5090135;28;20031;-79
2023/08/30 00:18:59;;;;;;;19.50;13.07;;;;;;;;;;5090296;28;20032;-79
2023/08/30 00:21:25;;;;;;;19.02;14.80;;;;;;;;;;5090066;28;20050;-80
2023/08/30 00:23:51;;;;;;;18.90;12.68;;;;;;;;;;5086162;28;20039;-80
2023/08/30 00:26:16;;;;;;;20.77;14.98;;;;;;;;;;5088487;28;20063;-80
2023/08/30 00:28:42;;;;;;;19.98;14.90;;;;;;;;;;5091148;28;20036;-80
2023/08/30 00:31:07;;;;;;;21.40;15.07;;;;;;;;;;5088754;28;20028;-80
2023/08/30 00:33:33;;;;;;;21.52;13.95;;;;;;;;;;5089227;28;20043;-80
2023/08/30 00:35:58;;;;;;;20.33;13.13;;;;;;;;;;5088892;28;20478;-80
2023/08/30 00:38:25;;;;;;;16.23;12.32;;;;;;;;;;5088743;28;20103;-80
2023/08/30 00:40:52;;;;;;;19.20;13.40;;;;;;;;;;5088389;28;20372;-79
2023/08/30 00:43:18;;;;;;;25.00;15.50;;;;;;;;;;5090783;28;20388;-79
2023/08/30 00:45:43;;;;;;;17.63;13.27;;;;;;;;;;5085095;28;20086;-79
2023/08/30 00:48:09;;;;;;;21.60;15.20;;;;;;;;;;5082414;28;20032;-79
2023/08/30 00:50:34;;;;;;;22.02;14.80;;;;;;;;;;5069026;28;20017;-80
2023/08/30 00:53:05;;;;;;;21.40;14.38;;;;;;;;;;5072097;28;20036;-80
2023/08/30 00:55:31;;;;;;;18.75;13.45;;;;;;;;;;5088482;28;20059;-80
2023/08/30 00:57:56;;;;;;;21.33;16.05;;;;;;;;;;5088821;28;20479;-79
2023/08/30 01:00:22;;;;;;;23.75;14.65;;;;;;;;;;5089432;28;20036;-79
2023/08/30 01:02:47;;;;;;;20.80;13.95;;;;;;;;;;5090271;28;20452;-80
2023/08/30 01:05:14;;;;;;;19.67;13.32;;;;;;;;;;5085104;28;20505;-80
2023/08/30 01:07:42;;;;;;;21.98;14.90;;;;;;;;;;5084091;28;20036;-79
2023/08/30 01:10:08;;;;;;;21.02;14.88;;;;;;;;;;5072885;28;20032;-80
2023/08/30 01:12:36;;;;;;;22.42;15.13;;;;;;;;;;5094090;28;20043;-80
2023/08/30 01:15:11;;;;;;;22.02;14.45;;;;;;;;;;5091979;28;20066;-79
2023/08/30 01:17:38;;;;;;;19.17;10.73;;;;;;;;;;5079928;28;20048;-80
2023/08/30 01:20:14;;;;;;;18.55;12.35;;;;;;;;;;5092276;28;20037;-80
2023/08/30 01:22:48;;;;;;;19.60;13.73;;;;;;;;;;5092500;28;20393;-80
2023/08/30 01:25:14;;;;;;;20.58;14.13;;;;;;;;;;5091741;28;20048;-81
2023/08/30 01:27:39;;;;;;;21.42;14.80;;;;;;;;;;5092338;28;20051;-80
2023/08/30 01:30:05;;;;;;;20.15;12.43;;;;;;;;;;5074569;28;20032;-80
2023/08/30 01:32:31;;;;;;;18.92;11.93;;;;;;;;;;5092058;28;20028;-80
2023/08/30 01:34:57;;;;;;;18.80;11.93;;;;;;;;;;5096133;28;20126;-80
2023/08/30 01:37:23;;;;;;;21.63;13.30;;;;;;;;;;5084411;28;20161;-80
2023/08/30 01:39:49;;;;;;;16.85;11.07;;;;;;;;;;5081018;28;20059;-79
2023/08/30 01:42:14;;;;;;;17.27;10.82;;;;;;;;;;5074835;28;20020;-80
2023/08/30 01:44:44;;;;;;;20.05;11.63;;;;;;;;;;5091500;28;20038;-79
2023/08/30 01:47:10;;;;;;;15.00;10.27;;;;;;;;;;5091803;28;20039;-79
2023/08/30 01:49:37;;;;;;;21.42;13.55;;;;;;;;;;5083105;28;20028;-80
2023/08/30 01:52:03;;;;;;;19.42;12.00;;;;;;;;;;5091685;28;20543;-79
2023/08/30 01:54:28;;;;;;;19.67;12.68;;;;;;;;;;5091847;28;20024;-80
2023/08/30 01:56:54;;;;;;;19.30;11.43;;;;;;;;;;5092390;28;20039;-79
2023/08/30 01:59:19;;;;;;;20.95;12.20;;;;;;;;;;5074852;28;20436;-80
2023/08/30 02:01:45;;;;;;;22.58;12.95;;;;;;;;;;5092817;28;20436;-80
2023/08/30 02:04:10;;;;;;;17.77;10.07;;;;;;;;;;5091573;28;20114;-79
2023/08/30 02:06:38;;;;;;;20.75;11.38;;;;;;;;;;5092050;28;20031;-79
2023/08/30 02:09:04;;;;;;;23.00;11.98;;;;;;;;;;5074775;28;20118;-79
2023/08/30 02:11:32;;;;;;;17.27;10.60;;;;;;;;;;5091117;28;20164;-79
2023/08/30 02:13:58;;;;;;;18.05;9.88;;;;;;;;;;5071345;28;20032;-79
2023/08/30 02:16:23;;;;;;;14.65;9.20;;;;;;;;;;5090338;28;20035;-79
2023/08/30 02:18:49;;;;;;;16.27;10.10;;;;;;;;;;5073984;28;20403;-79
2023/08/30 02:21:15;;;;;;;15.77;9.50;;;;;;;;;;5070472;28;20496;-79
2023/08/30 02:23:42;;;;;;;17.60;8.55;;;;;;;;;;5070672;28;20111;-79
2023/08/30 02:26:08;;;;;;;15.20;8.93;;;;;;;;;;5082482;28;20059;-79
2023/08/30 02:28:33;;;;;;;14.85;8.18;;;;;;;;;;5073965;28;20031;-78
2023/08/30 02:30:59;;;;;;;15.27;8.60;;;;;;;;;;5092126;28;20043;-80
2023/08/30 02:33:24;;;;;;;11.02;7.32;;;;;;;;;;5090986;28;20032;-79
2023/08/30 02:35:50;;;;;;;12.32;7.32;;;;;;;;;;5092054;28;20040;-80
2023/08/30 02:38:15;;;;;;;11.07;6.60;;;;;;;;;;5090570;28;20020;-80
2023/08/30 02:40:41;;;;;;;11.98;7.85;;;;;;;;;;5091758;28;20036;-80
2023/08/30 02:43:07;;;;;;;14.00;8.13;;;;;;;;;;5074362;28;20031;-80
2023/08/30 02:45:32;;;;;;;13.43;7.95;;;;;;;;;;5090598;28;20031;-80
2023/08/30 02:47:58;;;;;;;15.75;8.68;;;;;;;;;;5091677;28;20012;-79
2023/08/30 02:50:23;;;;;;;12.25;7.75;;;;;;;;;;5073566;28;20034;-80
2023/08/30 02:52:49;;;;;;;12.38;7.93;;;;;;;;;;5073269;28;20123;-80
2023/08/30 02:55:14;;;;;;;12.38;7.82;;;;;;;;;;5086867;28;20036;-79
2023/08/30 02:57:40;;;;;;;12.43;7.57;;;;;;;;;;5072512;28;20035;-79
2023/08/30 03:00:05;;;;;;;13.00;8.32;;;;;;;;;;5091212;28;20082;-80
2023/08/30 03:02:32;;;;;;;11.07;7.05;;;;;;;;;;5107311;28;20061;-81
2023/08/30 03:04:59;;;;;;;11.10;7.20;;;;;;;;;;5090518;28;20023;-80
2023/08/30 03:07:24;;;;;;;10.23;6.70;;;;;;;;;;5090398;28;20046;-80
2023/08/30 03:09:52;;;;;;;11.70;7.55;;;;;;;;;;5090559;28;20039;-80
2023/08/30 03:12:18;;;;;;;11.82;6.65;;;;;;;;;;5074001;28;20380;-80
2023/08/30 03:14:45;;;;;;;10.75;6.50;;;;;;;;;;5090172;28;20123;-80
2023/08/30 03:17:11;;;;;;;8.85;5.28;;;;;;;;;;5056997;28;20020;-80
2023/08/30 03:19:37;;;;;;;9.20;6.20;;;;;;;;;;5073281;28;20040;-80
2023/08/30 03:22:03;;;;;;;9.68;6.70;;;;;;;;;;5090134;28;20544;-80
2023/08/30 03:24:28;;;;;;;9.77;6.55;;;;;;;;;;5073268;28;20028;-79
2023/08/30 03:26:54;;;;;;;10.38;6.55;;;;;;;;;;5090294;28;20032;-79
2023/08/30 03:29:19;;;;;;;9.43;6.68;;;;;;;;;;5072710;28;20127;-80
2023/08/30 03:31:46;;;;;;;11.70;7.07;;;;;;;;;;5090013;28;20028;-80
2023/08/30 03:34:11;;;;;;;11.23;6.72;;;;;;;;;;5089850;28;20457;-80
2023/08/30 03:36:37;;;;;;;11.93;7.40;;;;;;;;;;5090858;28;20059;-82
2023/08/30 03:39:03;;;;;;;12.73;7.78;;;;;;;;;;5072571;28;20647;-81
2023/08/30 03:41:28;;;;;;;10.65;7.35;;;;;;;;;;5090752;28;20115;-80
2023/08/30 03:43:54;;;;;;;12.13;7.10;;;;;;;;;;5089811;28;20028;-80
2023/08/30 03:46:19;;;;;;;13.95;6.50;;;;;;;;;;5098986;28;20016;-80
2023/08/30 03:48:45;;;;;;;11.25;6.60;;;;;;;;;;5090958;28;20039;-80
2023/08/30 03:51:10;;;;;;;11.27;6.88;;;;;;;;;;5087243;28;20028;-80
2023/08/30 03:53:36;;;;;;;11.05;6.63;;;;;;;;;;5069048;28;20033;-80
2023/08/30 03:56:03;;;;;;;11.95;6.82;;;;;;;;;;5069022;28;20020;-80
2023/08/30 03:58:28;;;;;;;11.23;6.82;;;;;;;;;;5060311;28;20039;-81
2023/08/30 04:00:54;;;;;;;12.60;6.88;;;;;;;;;;5086206;28;20123;-80
2023/08/30 04:03:44;;;;;;;10.82;6.45;;;;;;;;;;5075419;28;20126;-79
2023/08/30 04:06:10;;;;;;;11.35;6.20;;;;;;;;;;5089584;28;20058;-79
2023/08/30 04:08:35;;;;;;;11.23;6.63;;;;;;;;;;5089573;28;20027;-79
2023/08/30 04:11:01;;;;;;;11.25;6.45;;;;;;;;;;5088750;28;20571;-79
2023/08/30 04:13:27;;;;;;;9.82;6.13;;;;;;;;;;5072558;28;20028;-80
2023/08/30 04:15:52;;;;;;;10.43;6.20;;;;;;;;;;5089333;28;20039;-80
2023/08/30 04:18:18;;;;;;;9.73;5.60;;;;;;;;;;5089147;28;20024;-79
2023/08/30 04:20:44;;;;;;;9.93;5.65;;;;;;;;;;5072108;28;20035;-80
2023/08/30 04:23:10;;;;;;;8.38;5.40;;;;;;;;;;5089571;28;20070;-80
2023/08/30 04:25:36;;;;;;;10.50;6.07;;;;;;;;;;5088496;28;20597;-80
2023/08/30 04:28:02;;;;;;;9.82;5.80;;;;;;;;;;5083039;28;20037;-80
2023/08/30 04:30:28;;;;;;;9.00;5.60;;;;;;;;;;5089651;28;20040;-80
2023/08/30 04:32:53;;;;;;;9.20;5.45;;;;;;;;;;5083147;28;20455;-80
2023/08/30 04:35:19;;;;;;;8.05;5.00;;;;;;;;;;5069105;28;20063;-80
2023/08/30 04:37:44;;;;;;;7.88;5.45;;;;;;;;;;5083212;28;20032;-80
2023/08/30 04:40:10;;;;;;;8.88;5.43;;;;;;;;;;5084438;28;20028;-81
2023/08/30 04:42:35;;;;;;;9.40;5.55;;;;;;;;;;5092163;28;20107;-80
2023/08/30 04:45:04;;;;;;;8.88;5.45;;;;;;;;;;5074003;28;20506;-80
2023/08/30 04:47:31;;;;;;;9.85;5.68;;;;;;;;;;5093723;28;20024;-80
2023/08/30 04:49:58;;;;;;;7.85;5.50;;;;;;;;;;5092108;28;20055;-80
2023/08/30 04:52:23;;;;;;;7.18;4.93;;;;;;;;;;5075839;28;20423;-79
2023/08/30 04:54:49;;;;;;;10.02;6.53;;;;;;;;;;5092418;28;20036;-79
2023/08/30 04:57:16;;;;;;;9.13;5.32;;;;;;;;;;5072802;28;20422;-80
2023/08/30 04:59:45;;;;;;;9.82;5.78;;;;;;;;;;5072390;28;20616;-79
2023/08/30 05:02:11;;;;;;;8.32;6.20;;;;;;;;;;5072673;28;20077;-80
2023/08/30 05:04:44;;;;;;;8.02;5.75;;;;;;;;;;5077162;28;20032;-79
2023/08/30 05:07:09;;;;;;;9.10;5.78;;;;;;;;;;5075866;28;20510;-80
2023/08/30 05:09:35;;;;;;;9.77;6.43;;;;;;;;;;5093492;28;20032;-79
2023/08/30 05:12:00;;;;;;;8.80;6.35;;;;;;;;;;5071689;28;20402;-80
2023/08/30 05:14:26;;;;;;;10.73;5.68;;;;;;;;;;5070623;28;20037;-80
2023/08/30 05:16:52;;;;;;;9.43;5.75;;;;;;;;;;5093646;28;20031;-80
2023/08/30 05:19:18;;;;;;;10.05;6.45;;;;;;;;;;5092337;28;20032;-80
2023/08/30 05:21:44;;;;;;;9.98;6.40;;;;;;;;;;5091903;28;20024;-80
2023/08/30 05:24:10;;;;;;;9.32;7.05;;;;;;;;;;5093538;28;20024;-80
2023/08/30 05:26:35;;;;;;;11.40;6.57;;;;;;;;;;5074763;28;20423;-80
2023/08/30 05:29:01;;;;;;;10.30;7.18;;;;;;;;;;5092305;28;20024;-80
2023/08/30 05:31:27;;;;;;;9.77;6.25;;;;;;;;;;5091500;28;20127;-80
2023/08/30 05:34:12;;;;;;;8.73;6.72;;;;;;;;;;5092874;28;20085;-80
2023/08/30 05:37:00;;;;;;;8.82;6.22;;;;;;;;;;5092159;28;20040;-80
2023/08/30 05:39:49;;;;;;;8.65;6.00;;;;;;;;;;5092840;28;20032;-80
2023/08/30 05:42:16;;;;;;;8.90;6.82;;;;;;;;;;5091822;28;20352;-80
2023/08/30 05:44:41;;;;;;;9.70;6.85;;;;;;;;;;5092820;28;20019;-80
2023/08/30 05:47:06;;;;;;;9.65;5.88;;;;;;;;;;5093500;28;20073;-80
2023/08/30 05:49:32;;;;;;;7.70;5.57;;;;;;;;;;5092020;28;20487;-80
2023/08/30 05:51:58;;;;;;;8.38;6.55;;;;;;;;;;5092727;28;20035;-80
2023/08/30 05:54:25;;;;;;;11.25;6.20;;;;;;;;;;5091307;28;20020;-79
2023/08/30 05:56:50;;;;;;;8.70;5.95;;;;;;;;;;5092696;28;20452;-79
2023/08/30 05:59:16;;;;;;;7.10;5.43;;;;;;;;;;5103162;28;20032;-81
2023/08/30 06:01:42;;;;;;;8.25;5.63;;;;;;;;;;5071100;28;20086;-80
2023/08/30 06:04:07;;;;;;;7.70;5.78;;;;;;;;;;5091567;28;20020;-81
2023/08/30 06:06:33;;;;;;;9.40;5.75;;;;;;;;;;5091351;28;20036;-80
2023/08/30 06:08:59;;;;;;;8.45;6.68;;;;;;;;;;5073388;28;20032;-80
2023/08/30 06:11:25;;;;;;;9.40;6.07;;;;;;;;;;5093311;28;20032;-80
2023/08/30 06:13:50;;;;;;;11.68;6.50;;;;;;;;;;5088590;28;20395;-80
2023/08/30 06:16:16;;;;;;;9.75;7.18;;;;;;;;;;5090005;28;20506;-81
2023/08/30 06:18:41;;;;;;;9.85;6.82;;;;;;;;;;5090957;28;20023;-80
2023/08/30 06:21:07;;;;;;;11.85;7.43;;;;;;;;;;5092518;28;20479;-79
2023/08/30 06:23:32;;;;;;;8.68;6.57;;;;;;;;;;5092844;28;20034;-80
2023/08/30 06:25:58;;;;;;;11.27;7.05;;;;;;;;;;5090877;28;20079;-80
2023/08/30 06:28:23;;;;;;;9.55;6.30;;;;;;;;;;5091119;28;20124;-80
2023/08/30 06:30:49;;;;;;;10.32;5.55;;;;;;;;;;5092563;28;20082;-80
2023/08/30 06:33:15;;;;;;;7.22;5.65;;;;;;;;;;5090739;28;20020;-81
2023/08/30 06:35:42;;;;;;;14.73;9.27;;;;;;;;;;5073179;28;20380;-79
2023/08/30 06:38:07;;;;;;;12.32;6.68;;;;;;;;;;5090623;28;20047;-80
2023/08/30 06:40:33;;;;;;;8.05;4.72;;;;;;;;;;5074378;28;20056;-80
2023/08/30 06:42:59;;;;;;;8.50;4.53;;;;;;;;;;5087635;28;20066;-81
2023/08/30 06:45:24;;;;;;;6.57;3.90;;;;;;;;;;5083588;28;20035;-81
2023/08/30 06:47:50;;;;;;;6.50;4.47;;;;;;;;;;5073366;28;20024;-81
2023/08/30 06:50:15;;;;;;;5.95;4.03;;;;;;;;;;5092200;28;20076;-80
2023/08/30 06:52:41;;;;;;;9.32;3.95;;;;;;;;;;5090451;28;20077;-80
2023/08/30 06:55:07;;;;;;;8.88;4.22;;;;;;;;;;5091913;28;20036;-80
2023/08/30 06:57:32;;;;;;;5.57;3.97;;;;;;;;;;5103886;28;20024;-80
2023/08/30 06:59:59;;;;;;;5.30;3.80;;;;;;;;;;5091167;28;20063;-81
2023/08/30 07:02:25;;;;;;;7.32;3.97;;;;;;;;;;5090331;28;20395;-80
2023/08/30 07:04:50;;;;;;;4.75;3.50;;;;;;;;;;5090049;28;20035;-80
2023/08/30 07:07:16;;;;;;;8.38;3.90;;;;;;;;;;5089875;28;20073;-80
2023/08/30 07:09:41;;;;;;;5.97;3.65;;;;;;;;;;5091708;28;20097;-79
2023/08/30 07:12:07;;;;;;;6.65;3.88;;;;;;;;;;5091443;28;20043;-80
2023/08/30 07:14:32;;;;;;;5.43;3.85;;;;;;;;;;5091284;28;20028;-80
2023/08/30 07:16:59;;;;;;;6.32;4.03;;;;;;;;;;5101652;28;20024;-81
2023/08/30 07:19:24;;;;;;;4.82;3.90;;;;;;;;;;5091200;28;20032;-81
2023/08/30 07:21:50;;;;;;;5.47;3.67;;;;;;;;;;5091075;28;20093;-80
2023/08/30 07:24:15;;;;;;;5.18;3.55;;;;;;;;;;5091615;28;20028;-79
2023/08/30 07:26:41;;;;;;;4.72;2.70;;;;;;;;;;5089398;28;20040;-80
2023/08/30 07:29:06;;;;;;;7.32;3.22;;;;;;;;;;5090904;28;20032;-80
2023/08/30 07:31:32;;;;;;;5.35;3.80;;;;;;;;;;5090683;28;20036;-80
2023/08/30 07:33:59;;;;;;;5.63;4.00;;;;;;;;;;5091283;28;20024;-81
2023/08/30 07:36:25;;;;;;;6.13;4.20;;;;;;;;;;5089426;28;20451;-80
2023/08/30 07:38:51;;;;;;;4.80;3.42;;;;;;;;;;5092598;28;20043;-80
2023/08/30 07:41:16;;;;;;;8.23;3.58;;;;;;;;;;5091445;28;20028;-80
2023/08/30 07:43:42;;;;;;;6.22;3.30;;;;;;;;;;5072764;28;20020;-80
2023/08/30 07:46:07;;;;;;;4.53;2.83;;;;;;;;;;5085486;28;20040;-81
2023/08/30 07:48:32;;;;;;;5.72;4.43;;;;;;;;;;5089623;28;20031;-81
2023/08/30 07:51:00;;;;;;;5.75;3.78;;;;;;;;;;5089258;28;20032;-82
2023/08/30 07:53:26;;;;;;;6.00;3.88;;;;;;;;;;5089872;28;20026;-81
2023/08/30 07:55:51;;;;;;;5.35;3.17;;;;;;;;;;5055730;28;20410;-80
2023/08/30 07:58:17;;;;;;;6.13;3.50;;;;;;;;;;5088745;28;20081;-81
2023/08/30 08:00:43;;;;;;;5.22;3.72;;;;;;;;;;5090292;28;20040;-80
2023/08/30 08:03:09;;;;;;;5.63;3.53;;;;;;;;;;5073193;28;20042;-82
2023/08/30 08:05:35;;;;;;;11.20;4.30;;;;;;;;;;5080719;28;20032;-80
2023/08/30 08:08:02;;;;;;;6.75;4.07;;;;;;;;;;5083346;28;20019;-81
2023/08/30 08:10:28;;;;;;;6.55;3.55;;;;;;;;;;5088796;28;20085;-81
2023/08/30 08:12:54;;;;;;;4.55;3.15;;;;;;;;;;5090713;28;20394;-82
2023/08/30 08:15:19;;;;;;;7.95;3.50;;;;;;;;;;5071854;28;20042;-81
2023/08/30 08:17:45;;;;;;;8.32;4.50;;;;;;;;;;5087784;28;20448;-80
2023/08/30 08:20:10;;;;;;;7.05;4.28;;;;;;;;;;5070989;28;20456;-81
2023/08/30 08:22:36;;;;;;;11.10;6.88;;;;;;;;;;5086936;28;20478;-81
2023/08/30 08:25:02;;;;;;;8.52;6.63;;;;;;;;;;5081230;28;20109;-80
2023/08/30 08:27:27;;;;;;;5.72;4.38;;;;;;;;;;5086546;28;20036;-81
2023/08/30 08:29:53;;;;;;;7.22;4.45;;;;;;;;;;5089098;28;20040;-81
2023/08/30 08:32:18;;;;;;;6.03;4.30;;;;;;;;;;5088841;28;20093;-81
2023/08/30 08:34:44;;;;;;;7.55;4.57;;;;;;;;;;5081297;28;20096;-80
2023/08/30 08:37:09;;;;;;;8.88;4.80;;;;;;;;;;5087639;28;20027;-82
2023/08/30 08:39:36;;;;;;;5.53;3.80;;;;;;;;;;5088947;28;20070;-81
2023/08/30 08:42:01;;;;;;;5.70;3.47;;;;;;;;;;5071508;28;20483;-81
2023/08/30 08:44:27;;;;;;;5.55;3.63;;;;;;;;;;5080070;28;20047;-81
2023/08/30 08:46:52;;;;;;;7.55;3.80;;;;;;;;;;5069537;28;20016;-81
2023/08/30 08:49:18;;;;;;;7.32;4.22;;;;;;;;;;5088350;28;20038;-81
2023/08/30 08:51:44;;;;;;;4.95;3.78;;;;;;;;;;5089876;28;20020;-81
2023/08/30 08:54:10;;;;;;;5.22;3.55;;;;;;;;;;5090039;28;20035;-81
2023/08/30 08:56:35;;;;;;;7.35;4.22;;;;;;;;;;5088755;28;20024;-81
2023/08/30 08:59:01;;;;;;;6.35;3.35;;;;;;;;;;5089256;28;20528;-81
2023/08/30 09:01:26;;;;;;;6.50;3.50;;;;;;;;;;5069179;28;20407;-81
2023/08/30 09:03:52;;;;;;;5.57;3.25;;;;;;;;;;5083522;28;20030;-81
2023/08/30 09:06:18;;;;;;;6.47;3.70;;;;;;;;;;5089148;28;20124;-83
2023/08/30 09:08:43;;;;;;;5.03;3.30;;;;;;;;;;5090268;28;20490;-83
2023/08/30 09:11:09;;;;;;;6.32;3.90;;;;;;;;;;5099209;28;20027;-81
2023/08/30 09:13:34;;;;;;;6.10;3.50;;;;;;;;;;5088393;28;20040;-81
2023/08/30 09:16:00;;;;;;;5.82;4.15;;;;;;;;;;5078568;28;20034;-81
2023/08/30 09:18:28;;;;;;;3.45;2.72;;;;;;;;;;5088756;28;20031;-82
2023/08/30 09:21:09;;;;;;;5.22;3.42;;;;;;;;;;5071241;28;20020;-81
2023/08/30 09:23:35;;;;;;;5.68;3.20;;;;;;;;;;5089755;28;20032;-81
2023/08/30 09:26:00;;;;;;;7.28;3.10;;;;;;;;;;5088173;28;20416;-82
2023/08/30 09:28:26;;;;;;;7.50;3.53;;;;;;;;;;5090669;28;20035;-82
2023/08/30 09:30:52;;;;;;;5.60;3.42;;;;;;;;;;5090767;28;20028;-81
2023/08/30 09:33:29;;;;;;;7.65;3.97;;;;;;;;;;5091967;28;20133;-82
2023/08/30 09:35:55;;;;;;;6.43;3.80;;;;;;;;;;5092581;28;20043;-81
2023/08/30 09:38:20;;;;;;;7.93;3.00;;;;;;;;;;5093210;28;20028;-82
2023/08/30 09:40:46;;;;;;;6.32;3.20;;;;;;;;;;5091857;28;20127;-81
2023/08/30 09:43:11;;;;;;;3.60;2.70;;;;;;;;;;5094261;28;20020;-81
2023/08/30 09:45:37;;;;;;;8.13;2.95;;;;;;;;;;5108094;28;20027;-81
2023/08/30 09:48:03;;;;;;;5.90;2.90;;;;;;;;;;5090155;28;20478;-82
2023/08/30 09:50:28;;;;;;;7.78;3.00;;;;;;;;;;5094553;28;20059;-83
2023/08/30 09:52:54;;;;;;;7.50;2.95;;;;;;;;;;5106800;28;20035;-83
2023/08/30 09:55:19;;;;;;;3.63;2.60;;;;;;;;;;5102988;28;20131;-81
2023/08/30 09:57:45;;;;;;;4.72;2.75;;;;;;;;;;5101869;28;20451;-81
2023/08/30 10:00:14;;;;;;;6.22;2.65;;;;;;;;;;5092960;28;20118;-83
2023/08/30 10:02:43;;;;;;;6.00;2.80;;;;;;;;;;5071949;28;20024;-82
2023/08/30 10:05:12;;;;;;;4.97;2.53;;;;;;;;;;5088508;28;20028;-82
2023/08/30 10:07:38;;;;;;;13.32;2.63;;;;;;;;;;5057524;28;20035;-82
2023/08/30 10:10:04;;;;;;;3.42;2.20;;;;;;;;;;5091117;28;20044;-82
2023/08/30 10:12:33;;;;;;;5.38;2.40;;;;;;;;;;5091595;28;20055;-80
2023/08/30 10:14:58;;;;;;;8.32;5.82;;;;;;;;;;5091034;28;20483;-82
2023/08/30 10:17:26;;;;;;;8.45;2.53;;;;;;;;;;5092058;28;20032;-82
2023/08/30 10:19:51;;;;;;;5.55;2.40;;;;;;;;;;5073634;28;20118;-82
2023/08/30 10:22:17;;;;;;;5.60;2.20;;;;;;;;;;5090861;28;20588;-82
2023/08/30 10:24:44;;;;;;;5.50;2.20;;;;;;;;;;5090865;28;20598;-82
2023/08/30 10:27:10;;;;;;;3.78;2.42;;;;;;;;;;5091396;28;20183;-81
2023/08/30 10:29:36;;;;;;;4.78;2.20;;;;;;;;;;5091788;28;20535;-81
2023/08/30 10:32:03;;;;;;;4.03;1.92;;;;;;;;;;5091226;28;20073;-81
2023/08/30 10:34:31;;;;;;;2.70;2.10;;;;;;;;;;5090330;28;20035;-82
2023/08/30 10:37:00;;;;;;;3.00;2.15;;;;;;;;;;5091163;28;20016;-82
2023/08/30 10:39:38;;;;;;;2.90;2.00;;;;;;;;;;5090787;28;20028;-82
2023/08/30 10:42:08;;;;;;;4.47;2.10;;;;;;;;;;5090695;28;20062;-81
2023/08/30 10:44:33;;;;;;;3.17;2.00;;;;;;;;;;5090187;28;20101;-82
2023/08/30 10:46:59;;;;;;;5.18;2.33;;;;;;;;;;5092057;28;20024;-81
2023/08/30 10:49:25;;;;;;;5.40;2.08;;;;;;;;;;5090859;28;20023;-81
2023/08/30 10:51:54;;;;;;;3.58;2.40;;;;;;;;;;5091795;28;20386;-81
2023/08/30 10:54:20;;;;;;;2.90;2.17;;;;;;;;;;5091100;28;20042;-80
2023/08/30 10:57:04;;;;;;;2.63;1.80;;;;;;;;;;5091500;28;20609;-81
2023/08/30 10:59:29;;;;;;;2.00;1.60;;;;;;;;;;5090073;28;20082;-80
2023/08/30 11:01:58;;;;;;;2.90;2.03;;;;;;;;;;5090313;28;20054;-81
2023/08/30 11:04:23;;;;;;;4.05;1.70;;;;;;;;;;5091326;28;20111;-82
2023/08/30 11:06:49;;;;;;;5.63;2.00;;;;;;;;;;5091871;28;20150;-81
2023/08/30 11:09:24;;;;;;;7.45;2.00;;;;;;;;;;5090364;28;20031;-82
2023/08/30 11:11:50;;;;;;;2.65;1.90;;;;;;;;;;5089661;28;20061;-81
2023/08/30 11:14:16;;;;;;;3.47;1.98;;;;;;;;;;5088975;28;20016;-81
2023/08/30 11:16:41;;;;;;;3.90;2.00;;;;;;;;;;5090597;28;20032;-81
2023/08/30 11:19:07;;;;;;;3.53;2.05;;;;;;;;;;5091386;28;20131;-81
2023/08/30 11:21:42;;;;;;;2.85;1.80;;;;;;;;;;5082931;28;20039;-81
2023/08/30 11:24:08;;;;;;;3.33;2.20;;;;;;;;;;5088587;28;20028;-82
2023/08/30 11:26:33;;;;;;;4.25;1.90;;;;;;;;;;5104526;28;20055;-82
2023/08/30 11:29:05;;;;;;;6.85;3.10;;;;;;;;;;5106545;28;20118;-81
2023/08/30 11:31:31;;;;;;;3.15;2.13;;;;;;;;;;5105089;28;20090;-82
2023/08/30 11:33:57;;;;;;;4.57;2.38;;;;;;;;;;5089316;28;20085;-81
2023/08/30 11:36:23;;;;;;;3.20;2.05;;;;;;;;;;5104248;28;20031;-81
2023/08/30 11:38:49;;;;;;;2.92;1.95;;;;;;;;;;5106307;28;20176;-81
2023/08/30 11:41:14;;;;;;;3.20;1.80;;;;;;;;;;5104288;28;20035;-80
2023/08/30 11:43:40;;;;;;;7.13;1.98;;;;;;;;;;5101266;28;20028;-80
2023/08/30 11:46:05;;;;;;;4.80;2.17;;;;;;;;;;5098982;28;20081;-81
2023/08/30 11:48:31;;;;;;;2.25;1.63;;;;;;;;;;5106313;28;20055;-80
2023/08/30 11:50:56;;;;;;;5.07;2.13;;;;;;;;;;5103268;28;20031;-80
2023/08/30 11:53:22;;;;;;;3.45;1.92;;;;;;;;;;5106448;28;20035;-81
2023/08/30 11:55:47;;;;;;;3.33;1.80;;;;;;;;;;5103584;28;20035;-82
2023/08/30 11:58:13;;;;;;;4.68;1.80;;;;;;;;;;5083783;28;20081;-81
2023/08/30 12:00:38;;;;;;;5.40;1.85;;;;;;;;;;5090152;28;20477;-81
2023/08/30 12:03:05;;;;;;;3.70;1.90;;;;;;;;;;5073130;28;20012;-82
2023/08/30 12:05:33;;;;;;;4.13;2.25;;;;;;;;;;5090723;28;20090;-81
2023/08/30 12:08:00;;;;;;;6.97;1.90;;;;;;;;;;5089584;28;20030;-81
2023/08/30 12:10:25;;;;;;;4.10;1.73;;;;;;;;;;5088903;28;20090;-80
2023/08/30 12:12:51;;;;;;;3.03;1.88;;;;;;;;;;5090055;28;20083;-80
2023/08/30 12:15:16;;;;;;;4.22;2.30;;;;;;;;;;5088931;28;20067;-80
2023/08/30 12:17:42;;;;;;;4.38;2.03;;;;;;;;;;5090833;28;20023;-80
2023/08/30 12:20:17;;;;;;;3.30;1.95;;;;;;;;;;5090133;28;20495;-80
2023/08/30 12:22:43;;;;;;;3.88;1.83;;;;;;;;;;5090275;28;20082;-80
2023/08/30 12:25:21;;;;;;;3.25;2.10;;;;;;;;;;5089697;28;20491;-80
2023/08/30 12:27:46;;;;;;;2.97;2.00;;;;;;;;;;5088931;28;20131;-81
2023/08/30 12:30:13;;;;;;;2.95;1.75;;;;;;;;;;5088905;28;20108;-81
2023/08/30 12:32:38;;;;;;;4.55;2.45;;;;;;;;;;5071454;28;20093;-80
2023/08/30 12:35:04;;;;;;;3.80;2.25;;;;;;;;;;5090126;28;20024;-80
2023/08/30 12:37:30;;;;;;;4.13;2.10;;;;;;;;;;5090055;28;20066;-80
2023/08/30 12:39:55;;;;;;;5.60;1.90;;;;;;;;;;5089294;28;20055;-81
2023/08/30 12:42:21;;;;;;;3.80;2.03;;;;;;;;;;5090932;28;20085;-80
2023/08/30 12:44:46;;;;;;;2.90;1.90;;;;;;;;;;5090140;28;20114;-80
2023/08/30 12:47:13;;;;;;;5.43;1.83;;;;;;;;;;5090510;28;20028;-80
2023/08/30 12:49:39;;;;;;;3.80;2.10;;;;;;;;;;5090050;28;20065;-80
2023/08/30 12:52:05;;;;;;;2.55;1.80;;;;;;;;;;5089987;28;20036;-80
2023/08/30 12:54:30;;;;;;;3.00;1.92;;;;;;;;;;5090055;28;20031;-80
2023/08/30 12:56:56;;;;;;;3.42;1.80;;;;;;;;;;5089818;28;20043;-81
2023/08/30 12:59:21;;;;;;;4.10;2.00;;;;;;;;;;5086044;28;20479;-81
2023/08/30 13:01:47;;;;;;;4.57;2.08;;;;;;;;;;5086149;28;20426;-80
2023/08/30 13:04:12;;;;;;;3.40;2.10;;;;;;;;;;5093513;28;20068;-80
2023/08/30 13:06:38;;;;;;;3.05;1.90;;;;;;;;;;5093579;28;20123;-80
2023/08/30 13:09:03;;;;;;;2.17;1.63;;;;;;;;;;5093857;28;20073;-80
2023/08/30 13:11:30;;;;;;;3.47;1.80;;;;;;;;;;5092097;28;20490;-81
2023/08/30 13:13:57;;;;;;;5.20;1.70;;;;;;;;;;5093920;28;20031;-81
2023/08/30 13:16:23;;;;;;;2.67;1.77;;;;;;;;;;5092388;28;20036;-80
2023/08/30 13:18:48;;;;;;;2.85;1.88;;;;;;;;;;5072413;28;20111;-81
2023/08/30 13:21:14;;;;;;;3.22;1.67;;;;;;;;;;5092644;28;20036;-81
2023/08/30 13:23:39;;;;;;;3.13;1.70;;;;;;;;;;5093241;28;20012;-81
2023/08/30 13:26:05;;;;;;;1.95;1.50;;;;;;;;;;5093209;28;20056;-81
2023/08/30 13:28:30;;;;;;;3.50;2.05;;;;;;;;;;5093491;28;20109;-81
2023/08/30 13:30:56;;;;;;;2.88;1.65;;;;;;;;;;5093547;28;20097;-82
2023/08/30 13:33:22;;;;;;;4.13;2.20;;;;;;;;;;5093217;28;20412;-80
2023/08/30 13:35:53;;;;;;;4.32;1.90;;;;;;;;;;5093507;28;20027;-80
2023/08/30 13:38:19;;;;;;;3.33;1.88;;;;;;;;;;5072289;28;20526;-81
2023/08/30 13:40:44;;;;;;;2.75;1.75;;;;;;;;;;5087252;28;20123;-81
2023/08/30 13:43:10;;;;;;;2.80;1.65;;;;;;;;;;5093565;28;20024;-81
2023/08/30 13:45:35;;;;;;;3.58;1.90;;;;;;;;;;5092515;28;20561;-81
2023/08/30 13:48:01;;;;;;;2.40;1.80;;;;;;;;;;5093110;28;20032;-80
2023/08/30 13:50:31;;;;;;;3.65;2.17;;;;;;;;;;5093797;28;20073;-81
2023/08/30 13:52:57;;;;;;;4.00;2.10;;;;;;;;;;5091980;28;20038;-82
2023/08/30 13:55:23;;;;;;;4.13;2.50;;;;;;;;;;5093366;28;20481;-82
2023/08/30 13:57:48;;;;;;;5.45;2.80;;;;;;;;;;5091551;28;20411;-81
2023/08/30 14:00:14;;;;;;;4.82;2.17;;;;;;;;;;5093594;28;20450;-81
2023/08/30 14:02:39;;;;;;;4.28;2.00;;;;;;;;;;5108803;27;20020;-81
2023/08/30 14:05:05;;;;;;;4.30;1.85;;;;;;;;;;5092745;28;20020;-81
2023/08/30 14:07:31;;;;;;;3.00;1.80;;;;;;;;;;5092327;28;20028;-80
2023/08/30 14:09:56;;;;;;;5.45;1.90;;;;;;;;;;5092596;28;20479;-81
2023/08/30 14:12:22;;;;;;;4.50;1.70;;;;;;;;;;5092600;28;20036;-82
2023/08/30 14:14:47;;;;;;;3.70;1.90;;;;;;;;;;5092847;28;20032;-81
2023/08/30 14:17:13;;;;;;;3.53;2.10;;;;;;;;;;5092464;28;20039;-81
2023/08/30 14:19:38;;;;;;;3.03;1.63;;;;;;;;;;5092365;28;20036;-81
2023/08/30 14:22:05;;;;;;;3.22;1.70;;;;;;;;;;5092202;28;20024;-82
2023/08/30 14:24:32;;;;;;;4.22;1.80;;;;;;;;;;5092015;28;20031;-81
2023/08/30 14:26:57;;;;;;;3.97;2.10;;;;;;;;;;5092501;28;20435;-81
2023/08/30 14:29:23;;;;;;;3.03;2.10;;;;;;;;;;5090695;28;20028;-81
2023/08/30 14:31:48;;;;;;;4.57;1.90;;;;;;;;;;5092495;28;20028;-81